x

Halibut Bank (46146) Wave Buoy

4:00 - Tue 21st Apr 2015 All times are PDT. -7 hours from GMT.

  • Sig Wave height 3.0ft
  • Peak Period 4s
  • Wind
    20mph, 22mph gusts
  • Sea Temp 53°f
  • Luft Temp 50°f
  • Sea Pressure 1014.5mb
  • Halibut Bank
  • Halibut Bank

More Historic Weather Station data

Upgrade to MSW Pro to gain access to the past 30 days of data for over 8000 Wavebouys and Weather Stations around the globe.

Join Pro

Comparision Forecast

View Surf forecast
   
Di 04/21 4:00 3ft 4s 20 22 mph 1014.5mb 53f 50f
3:00 2.5ft 4s 22 27 mph 1014.2mb 53f 51f
2:00 1.6ft 3s 20 25 mph 1013.5mb 54f 52f
1:00 0.7ft 3s 16 18 mph 1013.4mb 55f 54f
12:00 0.3ft 3s 4 7 mph 1013.5mb 55f 55f
11:00 0.3ft 3s 4
mph
1013.4mb 55f 54f
10:00 0.7ft 3s 4 7 mph 1012.9mb 54f 54f
9:00 0.3ft 2s 7 9 mph 1012.2mb 54f 53f
8:00 0.7ft 2s 7
mph
1011.9mb 54f 54f
7:00 0.3ft 2s 11 16 mph 1011.2mb 53f 54f
6:00 0.3ft 2s 7 9 mph 1011mb 54f 54f
5:00 0.3ft 4s 7 9 mph 1010.9mb 54f 54f
4:00 0.3ft 14s 7 9 mph 1010.8mb 54f 54f
3:00 0.3ft 2s 4
mph
1010.7mb 54f 54f
2:00 0.3ft 4s 7
mph
1010.5mb 54f 55f
1:00 0.3ft 5s 4 7 mph 1010.5mb 54f 55f
12:00 0.3ft 5s 4 7 mph 1010.3mb 55f 55f
Mo 04/20 11:00 0.3ft 5s 4
mph
1010.1mb 55f 55f
10:00 0.3ft 6s 2 4 mph 1010mb 55f 55f
9:00 0.3ft 4s 4
mph
1009.9mb 55f 55f
8:00 0.3ft 2s 4
mph
1009.8mb 55f 56f
7:00 0.3ft 3s  -  2 mph 1010mb 56f 58f
6:00 0.3ft 2s 4
mph
1010.4mb 56f 57f
5:00 0.3ft 2s 2
mph
1010.9mb 55f 57f
4:00 0.3ft 3s 4 7 mph 1011.6mb 55f 56f
3:00 0.7ft 3s 4 7 mph 1012.4mb 54f 55f
2:00 0.7ft 3s 7 9 mph 1013.2mb 54f 54f
1:00 0.7ft 3s 9 11 mph 1013.8mb 53f 53f
12:00 1ft 3s 9 11 mph 1014.4mb 53f 53f
11:00 1ft 3s 11 13 mph 1014.8mb 53f 52f
10:00 1ft 3s 11 13 mph 1014.8mb 51f 52f
9:00 1ft 3s 9 11 mph 1014.9mb 51f 52f
8:00 1ft 3s 11 13 mph 1015.1mb 51f 52f
7:00 1.3ft 3s 9 11 mph 1015mb 51f 52f
6:00 1.3ft 3s 11 13 mph 1015mb 51f 52f
5:00 1.6ft 3s 13
mph
1014.9mb 52f 53f
4:00 1.3ft 3s 13 16 mph 1015mb 52f 53f
3:00 0.7ft 2s 11 13 mph 1015.1mb 52f 53f
2:00 0.3ft 2s 11 13 mph 1015.3mb 52f 53f
1:00 0.3ft 2s 7 9 mph 1015.5mb 53f 53f
12:00 0.3ft 2s 7
mph
1015.5mb 51f 53f
So 04/19 11:00 0.7ft 2s 7 9 mph 1015.3mb 51f 53f
10:00 0.7ft 2s 11
mph
1015.6mb 51f 55f
9:00 0.7ft 2s 11 13 mph 1015.7mb 51f 54f
8:00 1ft 3s 11
mph
1016mb 52f 55f
7:00 1.3ft 3s 13
mph
1016.4mb 52f 55f
6:00 1.3ft 3s 13
mph
1017.2mb 52f 55f
5:00 1.3ft 3s 13
mph
1018.1mb 52f 54f
4:00 1.3ft 3s 13 16 mph 1019.1mb 52f 53f
3:00 1.6ft 3s 13 16 mph 1020.1mb 51f 53f
2:00 2ft 3s 16 18 mph 1020.9mb 51f 52f
1:00 2ft 3s 16 18 mph 1021.9mb 51f 51f
12:00 1.6ft 3s 16 18 mph 1022.7mb 51f 51f
11:00 1.6ft 3s 16 20 mph 1023.2mb 51f 50f
10:00 1.3ft 3s 13 16 mph 1023.7mb 51f 51f
9:00 1.6ft 3s 13 16 mph 1024mb 51f 50f
8:00 1.6ft 3s 16 18 mph 1024.2mb 51f 50f
7:00 1.6ft 3s 13 16 mph 1024.1mb 51f 51f
6:00 2ft 4s 16 18 mph 1024mb 51f 51f
5:00 2ft 4s 16 18 mph 1023.9mb 51f 51f
4:00 2ft 4s 13 18 mph 1024.1mb 51f 51f
3:00 1.3ft 3s 16 18 mph 1023.8mb 51f 52f
2:00 1ft 3s 9 11 mph 1024.1mb 51f 52f
1:00 1ft 3s 11 13 mph 1024.2mb 51f 52f
12:00 1ft 2s 13 16 mph 1023.9mb 51f 53f
Sa 04/18 11:00 1.3ft 3s 11 13 mph 1024.1mb 51f 54f
10:00 1.3ft 3s 16 18 mph 1024.1mb 51f 54f
9:00 1.3ft 3s 16 18 mph 1024.3mb 51f 54f
8:00 1.3ft 3s 16 18 mph 1024.3mb 51f 54f
7:00 1.3ft 3s 16 18 mph 1024.6mb 51f 53f
6:00 1ft 3s 13 18 mph 1025.4mb 52f 53f
5:00 1.3ft 3s 13
mph
1026.1mb 52f 53f
4:00 1.3ft 3s 13 16 mph 1026.6mb 51f 52f
3:00 1.3ft 3s 11 13 mph 1027.5mb 52f 52f
2:00 1.6ft 4s 13
mph
1028.3mb 51f 51f
1:00 2ft 4s 16 18 mph 1028.9mb 51f 50f
12:00 2ft 4s 16 18 mph 1029.5mb 51f 49f
11:00 1.6ft 4s 16 18 mph 1029.9mb 51f 49f
10:00 1.6ft 3s 13 16 mph 1030mb 51f 49f
9:00 1.6ft 4s 16 18 mph 1029.9mb 50f 49f
8:00 2ft 4s 11 13 mph 1029.6mb 51f 49f
7:00 2ft 4s 13 16 mph 1029mb 51f 49f
6:00 2ft 4s 13 16 mph 1028.6mb 51f 49f
5:00 2.5ft 4s 9
mph
1028.6mb 51f 49f
4:00 2.5ft 4s 11 16 mph 1028mb 51f 49f
3:00 2.5ft 4s 18 20 mph 1027.6mb 51f 51f
2:00 2.5ft 4s 20 25 mph 1027.2mb 52f 51f
1:00 2.5ft 4s 18 22 mph 1027.2mb 52f 52f